地図

経路データ

SID SEASON NUMBER BASIN SUBBASIN NAME ISO_TIME NATURE LAT LON WMO_WIND WMO_PRES WMO_AGENCY TRACK_TYPE DIST2LAND LANDFALL IFLAG USA_AGENCY USA_ATCF_ID USA_LAT USA_LON USA_RECORD USA_STATUS USA_WIND USA_PRES USA_SSHS USA_R34_NE USA_R34_SE USA_R34_SW USA_R34_NW USA_R50_NE USA_R50_SE USA_R50_SW USA_R50_NW USA_R64_NE USA_R64_SE USA_R64_SW USA_R64_NW USA_POCI USA_ROCI USA_RMW USA_EYE TOKYO_LAT TOKYO_LON TOKYO_GRADE TOKYO_WIND TOKYO_PRES TOKYO_R50_DIR TOKYO_R50_LONG TOKYO_R50_SHORT TOKYO_R30_DIR TOKYO_R30_LONG TOKYO_R30_SHORT TOKYO_LAND CMA_LAT CMA_LON CMA_CAT CMA_WIND CMA_PRES HKO_LAT HKO_LON HKO_CAT HKO_WIND HKO_PRES NEWDELHI_LAT NEWDELHI_LON NEWDELHI_GRADE NEWDELHI_WIND NEWDELHI_PRES NEWDELHI_CI NEWDELHI_DP NEWDELHI_POCI REUNION_LAT REUNION_LON REUNION_TYPE REUNION_WIND REUNION_PRES REUNION_TNUM REUNION_CI REUNION_RMW REUNION_R34_NE REUNION_R34_SE REUNION_R34_SW REUNION_R34_NW REUNION_R50_NE REUNION_R50_SE REUNION_R50_SW REUNION_R50_NW REUNION_R64_NE REUNION_R64_SE REUNION_R64_SW REUNION_R64_NW BOM_LAT BOM_LON BOM_TYPE BOM_WIND BOM_PRES BOM_TNUM BOM_CI BOM_RMW BOM_R34_NE BOM_R34_SE BOM_R34_SW BOM_R34_NW BOM_R50_NE BOM_R50_SE BOM_R50_SW BOM_R50_NW BOM_R64_NE BOM_R64_SE BOM_R64_SW BOM_R64_NW BOM_ROCI BOM_POCI BOM_EYE BOM_POS_METHOD BOM_PRES_METHOD NADI_LAT NADI_LON NADI_CAT NADI_WIND NADI_PRES WELLINGTON_LAT WELLINGTON_LON WELLINGTON_WIND WELLINGTON_PRES DS824_LAT DS824_LON DS824_STAGE DS824_WIND DS824_PRES TD9636_LAT TD9636_LON TD9636_STAGE TD9636_WIND TD9636_PRES TD9635_LAT TD9635_LON TD9635_WIND TD9635_PRES TD9635_ROCI NEUMANN_LAT NEUMANN_LON NEUMANN_CLASS NEUMANN_WIND NEUMANN_PRES MLC_LAT MLC_LON MLC_CLASS MLC_WIND MLC_PRES USA_GUST BOM_GUST BOM_GUST_PER REUNION_GUST REUNION_GUST_PER USA_SEAHGT USA_SEARAD_NE USA_SEARAD_SE USA_SEARAD_SW USA_SEARAD_NW STORM_SPEED STORM_DIR
2022165N12272 2022 31 EP MM CELIA 2022-06-13 18:00:00 NR 12.0000 -88.0000 PROVISIONAL 101 93 O_____________ nhc_working_bt EP032022 12.0000 -88.0000 DB 15 -3 3 316
2022165N12272 2022 31 EP MM CELIA 2022-06-13 21:00:00 NR 12.1100 -88.1075 PROVISIONAL 99 95 P_____________ EP032022 12.1100 -88.1075 DB 15 -3 3 316
2022165N12272 2022 31 EP MM CELIA 2022-06-14 00:00:00 NR 12.2000 -88.2000 PROVISIONAL 95 93 O_____________ nhc_working_bt EP032022 12.2000 -88.2000 DB 15 -3 2 311
2022165N12272 2022 31 EP MM CELIA 2022-06-14 03:00:00 NR 12.2575 -88.2775 PROVISIONAL 93 93 P_____________ EP032022 12.2575 -88.2775 DB 15 -3 2 297
2022165N12272 2022 31 EP MM CELIA 2022-06-14 06:00:00 NR 12.3000 -88.4000 PROVISIONAL 101 89 O_____________ nhc_working_bt EP032022 12.3000 -88.4000 DB 15 -3 4 286
2022165N12272 2022 31 EP MM CELIA 2022-06-14 09:00:00 NR 12.3575 -88.6275 PROVISIONAL 89 89 P_____________ EP032022 12.3575 -88.6275 DB 17 -3 5 282
2022165N12272 2022 31 EP MM CELIA 2022-06-14 12:00:00 NR 12.4000 -88.9000 PROVISIONAL 90 90 O_____________ nhc_working_bt EP032022 12.4000 -88.9000 DB 20 1007 -3 1009 90 40 5 277
2022165N12272 2022 31 EP MM CELIA 2022-06-14 15:00:00 NR 12.4225 -89.1575 PROVISIONAL 99 99 P_____________ EP032022 12.4225 -89.1575 DB 22 1007 -3 1009 90 40 5 270
2022165N12272 2022 31 EP MM CELIA 2022-06-14 18:00:00 NR 12.4000 -89.4000 PROVISIONAL 110 110 O_____________ nhc_working_bt EP032022 12.4000 -89.4000 DB 25 1007 -3 1009 90 40 5 257
2022165N12272 2022 31 EP MM CELIA 2022-06-14 21:00:00 NR 12.3225 -89.6075 PROVISIONAL 133 133 P_____________ EP032022 12.3225 -89.6075 DB 25 1007 -3 1009 105 50 4 243
2022165N12272 2022 31 EP MM CELIA 2022-06-15 00:00:00 NR 12.2000 -89.8000 PROVISIONAL 145 145 O_____________ nhc_working_bt EP032022 12.2000 -89.8000 DB 25 1007 -3 1009 120 60 5 233
2022165N12272 2022 31 EP MM CELIA 2022-06-15 03:00:00 NR 12.0499 -89.9850 PROVISIONAL 169 169 P_____________ EP032022 12.0499 -89.9850 DB 25 1007 -3 1009 120 60 5 232
2022165N12272 2022 31 EP MM CELIA 2022-06-15 06:00:00 NR 11.9000 -90.2000 PROVISIONAL 184 184 O_____________ nhc_working_bt EP032022 11.9000 -90.2000 DB 25 1007 -3 1009 120 60 6 243
2022165N12272 2022 31 EP MM CELIA 2022-06-15 09:00:00 NR 11.7851 -90.5150 PROVISIONAL 204 204 P_____________ EP032022 11.7851 -90.5150 DB 25 1007 -3 1009 120 60 6 251
2022165N12272 2022 31 EP MM CELIA 2022-06-15 12:00:00 NR 11.7000 -90.8000 PROVISIONAL 228 228 O_____________ nhc_working_bt EP032022 11.7000 -90.8000 DB 25 1007 -3 1009 120 60 4 250
2022165N12272 2022 31 EP MM CELIA 2022-06-15 15:00:00 NR 11.6424 -90.9150 PROVISIONAL 244 244 P_____________ EP032022 11.6424 -90.9150 DB 25 1007 -3 1009 120 55 2 243
2022165N12272 2022 31 EP MM CELIA 2022-06-15 18:00:00 NR 11.6000 -91.0000 PROVISIONAL 249 249 O_____________ nhc_working_bt EP032022 11.6000 -91.0000 DB 25 1007 -3 1009 120 50 3 258
2022165N12272 2022 31 EP MM CELIA 2022-06-15 21:00:00 NR 11.5726 -91.2375 PROVISIONAL 257 257 P_____________ EP032022 11.5726 -91.2375 DB 25 1007 -3 1009 120 50 4 256
2022165N12272 2022 31 EP MM CELIA 2022-06-16 00:00:00 NR 11.5000 -91.4000 PROVISIONAL 268 268 O_____________ nhc_working_bt EP032022 11.5000 -91.4000 DB 25 1007 -3 1009 120 50 3 203
2022165N12272 2022 31 EP MM CELIA 2022-06-16 03:00:00 NR 11.3224 -91.3475 PROVISIONAL 291 291 P_____________ EP032022 11.3224 -91.3475 DB 25 1007 -3 1009 120 50 5 144
2022165N12272 2022 31 EP MM CELIA 2022-06-16 06:00:00 NR 11.1000 -91.1000 PROVISIONAL 303 298 O_____________ nhc_working_bt EP032022 11.1000 -91.1000 DB 25 1007 -3 1009 120 50 35 8 123
2022165N12272 2022 31 EP MM CELIA 2022-06-16 09:00:00 NR 10.8703 -90.6423 PROVISIONAL 303 303 P_____________ EP032022 10.8703 -90.6423 DB 25 1006 -3 1009 120 45 10 114
2022165N12272 2022 31 EP MM CELIA 2022-06-16 12:00:00 DS 10.7000 -90.2000 PROVISIONAL 316 313 O_____________ nhc_working_bt EP032022 10.7000 -90.2000 LO 25 1006 -3 1009 120 40 35 6 109
2022165N12272 2022 31 EP MM CELIA 2022-06-16 15:00:00 DS 10.6699 -90.0551 PROVISIONAL 313 308 P_____________ EP032022 10.6699 -90.0551 LO 27 1006 -3 1009 120 40 2 90
2022165N12272 2022 31 EP MM CELIA 2022-06-16 18:00:00 TS 10.7000 -89.9667 PROVISIONAL 308 308 O_____________ nhc_working_bt EP032022 10.7000 -90.0000 TD 30 1006 -1 1009 120 40 40 1 45
2022165N12272 2022 31 EP MM CELIA 2022-06-16 21:00:00 TS 10.7487 -89.9712 PROVISIONAL 308 294 P_____________ EP032022 10.6775 -89.8500 TD 30 1006 -1 1009 110 40 1 0
2022165N12272 2022 31 EP MM CELIA 2022-06-17 00:00:00 TS 10.8200 -89.9400 PROVISIONAL 294 279 O_____________ nhc_working_bt EP032022 10.7000 -89.7000 TD 30 1006 -1 1009 100 40 40 3 58
2022165N12272 2022 31 EP MM CELIA 2022-06-17 03:00:00 TS 10.8893 -89.7433 PROVISIONAL 275 257 P_____________ EP032022 10.8125 -89.5850 TD 30 1006 -1 1009 100 40 5 67
2022165N12272 2022 31 EP MM CELIA 2022-06-17 06:00:00 TS 11.0000 -89.5000 PROVISIONAL 257 233 O_____________ nhc_working_bt EP032022 11.0000 -89.5000 TD 30 1006 -1 1009 100 40 40 5 42
2022165N12272 2022 31 EP MM CELIA 2022-06-17 09:00:00 TS 11.2475 -89.4150 PROVISIONAL 233 201 P_____________ EP032022 11.2575 -89.4350 TD 32 1005 -1 1009 100 35 5 11
2022165N12272 2022 31 EP MM CELIA 2022-06-17 12:00:00 TS 11.5000 -89.4000 PROVISIONAL 201 190 O_____________ nhc_working_bt EP032022 11.5000 -89.4000 TS 35 1004 0 30 30 30 1009 100 30 45 4 2
2022165N12272 2022 31 EP MM CELIA 2022-06-17 15:00:00 TS 11.6225 -89.4150 PROVISIONAL 190 180 P_____________ EP032022 11.6225 -89.4150 TS 35 1004 0 30 30 30 1009 100 30 2 8
2022165N12272 2022 31 EP MM CELIA 2022-06-17 18:00:00 TS 11.7000 -89.4000 PROVISIONAL 180 162 O_____________ nhc_working_bt EP032022 11.7000 -89.4000 TS 35 1004 0 30 30 30 1009 100 30 45 2 49
2022165N12272 2022 31 EP MM CELIA 2022-06-17 21:00:00 TS 11.7775 -89.2351 PROVISIONAL 162 149 P_____________ EP032022 11.7775 -89.2351 TS 32 1004 -1 1009 100 30 4 56
2022165N12272 2022 31 EP MM CELIA 2022-06-18 00:00:00 TS 11.9000 -89.1000 PROVISIONAL 149 127 O_____________ nhc_working_bt EP032022 11.9000 -89.1000 TD 30 1005 -1 1009 100 30 40 4 16
2022165N12272 2022 31 EP MM CELIA 2022-06-18 03:00:00 TS 12.1350 -89.1400 PROVISIONAL 127 104 P_____________ EP032022 12.1350 -89.1400 TD 30 1005 -1 1009 100 30 5 339
2022165N12272 2022 31 EP MM CELIA 2022-06-18 06:00:00 TS 12.4000 -89.3000 PROVISIONAL 104 95 O_____________ nhc_working_bt EP032022 12.4000 -89.3000 TD 30 1006 -1 1010 100 30 40 6 321
2022165N12272 2022 31 EP MM CELIA 2022-06-18 09:00:00 TS 12.6301 -89.5424 PROVISIONAL 99 78 P_____________ EP032022 12.6301 -89.5424 TD 30 1006 -1 1010 100 30 6 309
2022165N12272 2022 31 EP MM CELIA 2022-06-18 12:00:00 TS 12.8000 -89.8000 PROVISIONAL 78 68 O_____________ nhc_working_bt EP032022 12.8000 -89.8000 TD 30 1006 -1 1010 100 30 40 5 299
2022165N12272 2022 31 EP MM CELIA 2022-06-18 15:00:00 TS 12.8650 -89.9776 PROVISIONAL 70 70 P_____________ EP032022 12.8650 -89.9726 TD 27 1006 -1 1010 100 25 3 289
2022165N12272 2022 31 EP MM CELIA 2022-06-18 18:00:00 TS 12.9000 -90.1000 PROVISIONAL 74 64 O_____________ nhc_working_bt EP032022 12.9000 -90.1000 TD 25 1007 -1 1010 100 20 35 2 312
2022165N12272 2022 31 EP MM CELIA 2022-06-18 21:00:00 TS 13.0074 -90.1392 PROVISIONAL 64 62 P_____________ EP032022 13.0074 -90.1775 TD 25 1007 -1 1010 100 20 2 326
2022165N12272 2022 31 EP MM CELIA 2022-06-19 00:00:00 TS 13.1000 -90.2333 PROVISIONAL 62 62 O_____________ nhc_working_bt EP032022 13.1000 -90.3000 TD 25 1007 -1 1010 100 20 35 4 289
2022165N12272 2022 31 EP MM CELIA 2022-06-19 03:00:00 TS 13.1300 -90.5016 PROVISIONAL 84 84 P_____________ EP032022 13.1299 -90.5400 TD 25 1007 -1 1010 100 20 7 270
2022165N12272 2022 31 EP MM CELIA 2022-06-19 06:00:00 TS 13.1000 -90.9000 PROVISIONAL 89 89 O_____________ nhc_working_bt EP032022 13.1000 -90.9000 TD 25 1008 -1 1010 100 20 35 8 262
2022165N12272 2022 31 EP MM CELIA 2022-06-19 09:00:00 TS 13.0149 -91.3601 PROVISIONAL 101 101 P_____________ EP032022 13.0150 -91.3551 TD 25 1008 -1 1010 100 20 10 258
2022165N12272 2022 31 EP MM CELIA 2022-06-19 12:00:00 TS 12.9000 -91.9000 PROVISIONAL 129 129 O_____________ nhc_working_bt EP032022 12.9000 -91.9000 TD 25 1008 -1 1010 100 20 35 12 260
2022165N12272 2022 31 EP MM CELIA 2022-06-19 15:00:00 TS 12.8052 -92.5375 PROVISIONAL 174 174 P_____________ EP032022 12.8153 -92.5525 TD 25 1008 -1 1010 115 30 12 260
2022165N12272 2022 31 EP MM CELIA 2022-06-19 18:00:00 TS 12.7000 -93.1000 PROVISIONAL 219 219 O_____________ nhc_working_bt EP032022 12.7000 -93.1000 TD 25 1008 -1 1011 130 40 35 9 256
2022165N12272 2022 31 EP MM CELIA 2022-06-19 21:00:00 TS 12.5840 -93.4174 PROVISIONAL 249 249 P_____________ EP032022 12.5072 -93.3024 TD 25 1008 -1 1011 130 40 6 241
2022165N12272 2022 31 EP MM CELIA 2022-06-20 00:00:00 TS 12.4333 -93.6000 PROVISIONAL 279 279 O_____________ nhc_working_bt EP032022 12.3000 -93.4000 TD 25 1008 -1 1011 130 40 35 5 222
2022165N12272 2022 31 EP MM CELIA 2022-06-20 03:00:00 TS 12.2191 -93.7499 PROVISIONAL 304 304 P_____________ EP032022 12.1425 -93.6350 TD 25 1008 -1 1011 130 40 5 214
2022165N12272 2022 31 EP MM CELIA 2022-06-20 06:00:00 TS 12.0000 -93.9000 PROVISIONAL 335 335 O_____________ nhc_working_bt EP032022 12.0000 -93.9000 TD 25 1008 -1 1011 130 40 35 5 217
2022165N12272 2022 31 EP MM CELIA 2022-06-20 09:00:00 TS 11.8047 -94.0676 PROVISIONAL 365 365 P_____________ EP032022 11.8197 -94.0826 TD 25 1008 -1 1011 130 40 6 238
2022165N12272 2022 31 EP MM CELIA 2022-06-20 12:00:00 TS 11.7000 -94.4000 PROVISIONAL 393 393 O_____________ nhc_working_bt EP032022 11.7000 -94.4000 TD 25 1008 -1 1011 130 40 35 10 268
2022165N12272 2022 31 EP MM CELIA 2022-06-20 15:00:00 TS 11.7687 -95.0547 PROVISIONAL 435 423 P_____________ EP032022 11.7354 -95.0548 TD 27 1007 -1 1010 125 40 14 277
2022165N12272 2022 31 EP MM CELIA 2022-06-20 18:00:00 TS 11.8667 -95.8000 PROVISIONAL 423 415 O_____________ nhc_working_bt EP032022 11.8000 -95.8000 TD 30 1006 -1 1010 120 40 40 13 273
2022165N12272 2022 31 EP MM CELIA 2022-06-20 21:00:00 TS 11.8414 -96.3726 PROVISIONAL 426 425 P_____________ EP032022 11.7648 -96.3726 TD 30 1006 -1 1010 120 40 11 265
2022165N12272 2022 31 EP MM CELIA 2022-06-21 00:00:00 TS 11.7667 -96.9000 PROVISIONAL 426 426 O_____________ nhc_working_bt EP032022 11.7000 -96.9000 TD 30 1006 -1 1010 120 40 40 11 261
2022165N12272 2022 31 EP MM CELIA 2022-06-21 03:00:00 TS 11.6707 -97.4526 PROVISIONAL 447 447 P_____________ EP032022 11.6273 -97.4276 TD 30 1006 -1 1010 120 40 11 261
2022165N12272 2022 31 EP MM CELIA 2022-06-21 06:00:00 TS 11.6000 -98.0000 PROVISIONAL 472 472 O_____________ nhc_working_bt EP032022 11.6000 -98.0000 TD 30 1006 -1 1010 120 40 40 10 264
2022165N12272 2022 31 EP MM CELIA 2022-06-21 09:00:00 TS 11.5729 -98.4861 PROVISIONAL 492 492 P_____________ EP032022 11.6550 -98.6776 TD 32 1005 -1 1010 120 40 10 274
2022165N12272 2022 31 EP MM CELIA 2022-06-21 12:00:00 TS 11.6667 -99.0667 PROVISIONAL 501 500 O_____________ nhc_working_bt EP032022 11.8000 -99.4000 TS 35 1005 0 50 50 1010 120 40 45 15 285
2022165N12272 2022 31 EP MM CELIA 2022-06-21 15:00:00 TS 11.9516 -99.9677 PROVISIONAL 504 501 P_____________ EP032022 12.0277 -100.160 TS 37 1004 0 1010 165 50 18 290
2022165N12272 2022 31 EP MM CELIA 2022-06-21 18:00:00 TS 12.3000 -100.800 PROVISIONAL 506 483 O_____________ nhc_working_bt EP032022 12.3000 -100.800 TS 40 1004 0 70 1010 210 60 50 12 30 30 30 13 298
2022165N12272 2022 31 EP MM CELIA 2022-06-21 21:00:00 TS 12.5668 -101.148 PROVISIONAL 483 469 P_____________ EP032022 12.5570 -101.123 TS 40 1004 0 60 1010 210 55 12 30 30 30 8 310
2022165N12272 2022 31 EP MM CELIA 2022-06-22 00:00:00 TS 12.8000 -101.400 PROVISIONAL 473 467 O_____________ nhc_working_bt EP032022 12.8000 -101.400 TS 40 1004 0 50 1010 210 50 50 12 30 30 30 9 300
2022165N12272 2022 31 EP MM CELIA 2022-06-22 03:00:00 TS 13.0102 -101.932 PROVISIONAL 476 476 P_____________ EP032022 13.0153 -101.942 TS 40 1004 0 50 1010 210 50 12 60 60 30 11 290
2022165N12272 2022 31 EP MM CELIA 2022-06-22 06:00:00 TS 13.2000 -102.500 PROVISIONAL 482 473 O_____________ nhc_working_bt EP032022 13.2000 -102.500 TS 40 1004 0 50 50 1010 210 50 50 12 90 90 30 11 292
2022165N12272 2022 31 EP MM CELIA 2022-06-22 09:00:00 TS 13.4083 -102.959 PROVISIONAL 481 476 P_____________ EP032022 13.3723 -102.880 TS 40 1003 0 50 50 1009 195 50 12 75 75 9 294
2022165N12272 2022 31 EP MM CELIA 2022-06-22 12:00:00 TS 13.5667 -103.333 PROVISIONAL 476 476 O_____________ nhc_working_bt EP032022 13.5000 -103.200 TS 40 1003 0 50 50 1009 180 50 50 12 60 60 7 287
2022165N12272 2022 31 EP MM CELIA 2022-06-22 15:00:00 TS 13.6074 -103.645 PROVISIONAL 493 493 P_____________ EP032022 13.5501 -103.588 TS 42 1002 0 55 55 1009 180 50 12 45 45 5 277
2022165N12272 2022 31 EP MM CELIA 2022-06-22 18:00:00 TS 13.6333 -103.867 PROVISIONAL 510 500 O_____________ nhc_working_bt EP032022 13.6000 -103.900 TS 45 1001 0 40 60 60 40 1009 180 50 55 12 30 30 3 283
2022165N12272 2022 31 EP MM CELIA 2022-06-22 21:00:00 TS 13.6816 -103.979 PROVISIONAL 504 486 P_____________ EP032022 13.6674 -104.008 TS 45 1000 0 40 60 60 40 1009 180 50 12 30 30 4 320
2022165N12272 2022 31 EP MM CELIA 2022-06-23 00:00:00 TS 13.9000 -104.100 PROVISIONAL 486 440 O_____________ nhc_working_bt EP032022 13.9000 -104.100 TS 45 1000 0 40 60 60 40 1009 180 50 55 12 30 30 9 336
2022165N12272 2022 31 EP MM CELIA 2022-06-23 03:00:00 TS 14.4775 -104.350 PROVISIONAL 429 380 P_____________ EP032022 14.4700 -104.347 TS 45 1000 0 40 60 60 40 1009 180 50 12 45 90 13 334
2022165N12272 2022 31 EP MM CELIA 2022-06-23 06:00:00 TS 15.1000 -104.700 PROVISIONAL 380 361 O_____________ nhc_working_bt EP032022 15.1000 -104.700 TS 45 1000 0 40 60 60 40 1009 180 50 55 12 60 150 120 12 322
2022165N12272 2022 31 EP MM CELIA 2022-06-23 09:00:00 TS 15.4334 -105.135 PROVISIONAL 366 361 P_____________ EP032022 15.5101 -105.135 TS 45 1000 0 50 55 50 45 1009 195 45 12 75 120 120 10 303
2022165N12272 2022 31 EP MM CELIA 2022-06-23 12:00:00 TS 15.6667 -105.600 PROVISIONAL 366 364 O_____________ nhc_working_bt EP032022 15.8000 -105.600 TS 45 1000 0 60 50 40 50 1009 210 40 55 12 90 90 120 90 10 301
2022165N12272 2022 31 EP MM CELIA 2022-06-23 15:00:00 TS 15.9457 -106.008 PROVISIONAL 377 369 P_____________ EP032022 16.0224 -106.008 TS 45 1000 0 60 50 40 50 1008 210 40 12 150 120 75 90 9 305
2022165N12272 2022 31 EP MM CELIA 2022-06-23 18:00:00 TS 16.2000 -106.400 PROVISIONAL 376 371 O_____________ nhc_working_bt EP032022 16.2000 -106.400 TS 45 1000 0 60 50 40 50 1008 210 40 55 12 210 150 30 90 9 302
2022165N12272 2022 31 EP MM CELIA 2022-06-23 21:00:00 TS 16.4199 -106.803 PROVISIONAL 378 375 P_____________ EP032022 16.4150 -106.822 TS 45 999 0 60 50 40 50 1008 210 40 12 190 115 50 95 9 298
2022165N12272 2022 31 EP MM CELIA 2022-06-24 00:00:00 TS 16.6000 -107.200 PROVISIONAL 386 384 O_____________ nhc_working_bt EP032022 16.6000 -107.200 TS 45 999 0 60 50 40 50 1008 210 40 55 12 170 80 70 100 8 294
2022165N12272 2022 31 EP MM CELIA 2022-06-24 03:00:00 TS 16.7558 -107.596 PROVISIONAL 399 399 P_____________ EP032022 16.7224 -107.473 TS 47 998 0 75 55 40 50 1008 210 35 12 190 100 65 117 8 290
2022165N12272 2022 31 EP MM CELIA 2022-06-24 06:00:00 TS 16.8667 -107.967 PROVISIONAL 422 422 O_____________ nhc_working_bt EP032022 16.8000 -107.700 TS 50 997 0 90 60 40 50 30 1008 210 30 60 12 210 120 60 135 7 284
2022165N12272 2022 31 EP MM CELIA 2022-06-24 09:00:00 TS 16.9317 -108.333 PROVISIONAL 445 445 P_____________ EP032022 16.8500 -107.950 TS 52 996 0 90 60 40 50 30 1008 230 30 12 210 105 60 135 6 279
2022165N12272 2022 31 EP MM CELIA 2022-06-24 12:00:00 TS 16.9667 -108.600 PROVISIONAL 461 461 O_____________ nhc_working_bt EP032022 16.9000 -108.200 TS 55 996 0 90 60 40 50 30 1009 250 30 65 12 210 90 60 135 3 276
2022165N12272 2022 31 EP MM CELIA 2022-06-24 15:00:00 TS 16.9649 -108.653 PROVISIONAL 469 469 P_____________ EP032022 16.9699 -108.443 TS 55 994 0 90 60 35 40 30 1009 260 25 12 195 105 67 142 1 304
2022165N12272 2022 31 EP MM CELIA 2022-06-24 18:00:00 TS 17.0333 -108.700 PROVISIONAL 469 461 O_____________ nhc_working_bt EP032022 17.1000 -108.700 TS 55 993 0 90 60 30 30 30 30 1009 270 20 75 12 180 120 75 150 5 318
2022165N12272 2022 31 EP MM CELIA 2022-06-24 21:00:00 TS 17.2993 -108.970 PROVISIONAL 473 467 P_____________ EP032022 17.3425 -109.000 TS 55 993 0 90 65 40 40 1009 285 35 12 180 120 82 165 8 315
2022165N12272 2022 31 EP MM CELIA 2022-06-25 00:00:00 TS 17.6000 -109.300 PROVISIONAL 481 481 O_____________ nhc_working_bt EP032022 17.6000 -109.300 TS 55 993 0 90 70 50 50 1009 300 50 65 12 180 120 90 180 7 310
2022165N12272 2022 31 EP MM CELIA 2022-06-25 03:00:00 TS 17.7624 -109.550 PROVISIONAL 496 496 P_____________ EP032022 17.7574 -109.550 TS 55 993 0 90 70 50 50 1009 300 50 12 180 120 90 180 6 302
2022165N12272 2022 31 EP MM CELIA 2022-06-25 06:00:00 TS 17.9000 -109.800 PROVISIONAL 509 509 O_____________ nhc_working_bt EP032022 17.9000 -109.800 TS 55 993 0 90 70 50 50 50 50 40 1009 300 50 65 12 180 120 90 180 6 305
2022165N12272 2022 31 EP MM CELIA 2022-06-25 09:00:00 TS 18.1074 -110.077 PROVISIONAL 528 515 P_____________ EP032022 18.1074 -110.077 TS 55 993 0 90 70 50 50 50 50 40 1009 290 50 12 180 135 90 180 7 305
2022165N12272 2022 31 EP MM CELIA 2022-06-25 12:00:00 TS 18.3000 -110.400 PROVISIONAL 516 507 O_____________ nhc_working_bt EP032022 18.3000 -110.400 TS 55 994 0 90 70 50 50 50 50 40 1009 280 50 65 12 180 150 90 180 7 294
2022165N12272 2022 31 EP MM CELIA 2022-06-25 15:00:00 TS 18.4024 -110.770 PROVISIONAL 510 502 P_____________ EP032022 18.4074 -110.770 TS 52 994 0 90 70 50 50 45 45 35 1009 260 45 12 195 150 82 165 8 285
2022165N12272 2022 31 EP MM CELIA 2022-06-25 18:00:00 TS 18.5000 -111.200 PROVISIONAL 507 498 O_____________ nhc_working_bt EP032022 18.5000 -111.200 TS 50 995 0 90 70 50 50 40 40 30 1009 240 40 60 12 210 150 75 150 9 287
2022165N12272 2022 31 EP MM CELIA 2022-06-25 21:00:00 TS 18.6861 -111.722 PROVISIONAL 501 499 P_____________ EP032022 18.6577 -111.722 TS 50 995 0 90 70 50 55 40 40 30 1009 240 40 12 210 165 82 135 10 291
2022165N12272 2022 31 EP MM CELIA 2022-06-26 00:00:00 TS 18.8667 -112.200 PROVISIONAL 502 502 O_____________ nhc_working_bt EP032022 18.8000 -112.200 TS 50 995 0 90 70 50 60 40 40 30 1009 240 40 60 12 210 180 90 120 8 292
2022165N12272 2022 31 EP MM CELIA 2022-06-26 03:00:00 TS 18.9797 -112.480 PROVISIONAL 507 507 P_____________ EP032022 18.8647 -112.480 TS 47 996 0 90 70 50 60 1009 235 40 12 210 180 90 120 5 289
2022165N12272 2022 31 EP MM CELIA 2022-06-26 06:00:00 TS 19.0333 -112.700 PROVISIONAL 518 518 O_____________ nhc_working_bt EP032022 18.9000 -112.700 TS 45 997 0 90 70 50 60 1010 230 40 55 12 210 180 90 120 5 273
2022165N12272 2022 31 EP MM CELIA 2022-06-26 09:00:00 TS 19.0017 -113.000 PROVISIONAL 535 535 P_____________ EP032022 18.9350 -113.000 TS 45 997 0 90 70 50 60 1010 230 40 12 195 180 82 127 6 267
2022165N12272 2022 31 EP MM CELIA 2022-06-26 12:00:00 TS 19.0000 -113.300 PROVISIONAL 554 552 O_____________ nhc_working_bt EP032022 19.0000 -113.300 TS 45 997 0 90 70 50 60 1010 230 40 55 12 180 180 75 135 5 286
2022165N12272 2022 31 EP MM CELIA 2022-06-26 15:00:00 TS 19.1482 -113.535 PROVISIONAL 558 550 P_____________ EP032022 19.1198 -113.535 TS 45 997 0 90 70 50 60 1011 230 40 6 308
2022165N12272 2022 31 EP MM CELIA 2022-06-26 18:00:00 TS 19.3667 -113.800 PROVISIONAL 555 554 O_____________ nhc_working_bt EP032022 19.3000 -113.800 TS 45 997 0 90 70 50 60 1012 230 40 55 7 306
2022165N12272 2022 31 EP MM CELIA 2022-06-26 21:00:00 TS 19.5833 -114.170 PROVISIONAL 570 570 P_____________ EP032022 19.5500 -114.170 TS 45 997 0 90 80 55 65 1012 230 35 9 300
2022165N12272 2022 31 EP MM CELIA 2022-06-27 00:00:00 TS 19.8000 -114.600 PROVISIONAL 588 588 O_____________ nhc_working_bt EP032022 19.8000 -114.600 TS 45 998 0 90 90 60 70 30 20 20 1012 230 30 60 12 150 90 90 180 9 296
2022165N12272 2022 31 EP MM CELIA 2022-06-27 03:00:00 TS 19.9883 -115.040 PROVISIONAL 601 601 P_____________ EP032022 19.9649 -115.035 TS 45 999 0 65 60 45 65 1012 230 30 12 150 90 90 165 9 293
2022165N12272 2022 31 EP MM CELIA 2022-06-27 06:00:00 TS 20.1667 -115.500 PROVISIONAL 612 612 O_____________ nhc_working_bt EP032022 20.1000 -115.500 TS 45 1000 0 40 30 30 60 1012 230 30 55 12 150 90 90 150 9 294
2022165N12272 2022 31 EP MM CELIA 2022-06-27 09:00:00 TS 20.3648 -115.954 PROVISIONAL 625 625 P_____________ EP032022 20.2499 -115.993 TS 42 1001 0 40 30 30 55 1012 230 30 12 142 90 82 142 10 293
2022165N12272 2022 31 EP MM CELIA 2022-06-27 12:00:00 TS 20.5333 -116.433 PROVISIONAL 644 643 O_____________ nhc_working_bt EP032022 20.4000 -116.500 TS 40 1002 0 40 30 30 50 1012 230 30 50 12 135 90 75 135 10 285
2022165N12272 2022 31 EP MM CELIA 2022-06-27 15:00:00 TS 20.6143 -116.977 PROVISIONAL 680 680 P_____________ EP032022 20.5425 -117.015 TS 37 1003 0 40 25 20 50 1012 230 30 10 279
2022165N12272 2022 31 EP MM CELIA 2022-06-27 18:00:00 TS 20.7000 -117.500 PROVISIONAL 710 710 O_____________ nhc_working_bt EP032022 20.7000 -117.500 TS 35 1004 0 40 20 11 50 1012 230 30 9 286
2022165N12272 2022 31 EP MM CELIA 2022-06-27 21:00:00 TS 20.8748 -117.920 PROVISIONAL 728 728 P_____________ EP032022 20.8848 -117.915 TS 35 1004 0 35 45 1012 235 30 8 298
2022165N12272 2022 31 EP MM CELIA 2022-06-28 00:00:00 TS 21.1000 -118.300 PROVISIONAL 748 748 O_____________ nhc_working_bt EP032022 21.1000 -118.300 TS 35 1004 0 30 40 1012 240 30 45 9 303
2022165N12272 2022 31 EP MM CELIA 2022-06-28 03:00:00 TS 21.3424 -118.693 PROVISIONAL 771 765 P_____________ EP032022 21.3424 -118.693 TS 32 1005 -1 1012 240 30 9 304
2022165N12272 2022 31 EP MM CELIA 2022-06-28 06:00:00 TS 21.6000 -119.100 PROVISIONAL 785 783 O_____________ nhc_working_bt EP032022 21.6000 -119.100 TD 30 1006 -1 1012 240 30 40 12 120 60 60 120 9 303
2022165N12272 2022 31 EP MM CELIA 2022-06-28 09:00:00 TS 21.8649 -119.542 PROVISIONAL 784 784 P_____________ EP032022 21.8649 -119.542 TD 30 1006 -1 1012 240 30 12 90 45 45 90 10 301
2022165N12272 2022 31 EP MM CELIA 2022-06-28 12:00:00 TS 22.1000 -120.000 PROVISIONAL 802 800 O_____________ nhc_working_bt EP032022 22.1000 -120.000 TD 30 1006 -1 1012 240 30 40 12 60 30 30 60 9 296
2022165N12272 2022 31 EP MM CELIA 2022-06-28 15:00:00 TS 22.2702 -120.452 PROVISIONAL 818 818 P_____________ EP032022 22.2702 -120.452 TD 30 1006 -1 1012 220 30 12 60 30 30 60 9 290
2022165N12272 2022 31 EP MM CELIA 2022-06-28 18:00:00 TS 22.4000 -120.900 PROVISIONAL 838 O_____________ nhc_working_bt EP032022 22.4000 -120.900 TD 30 1007 -1 1013 200 30 40 12 60 30 30 60 9 287

IBTrACS Databaseについて

本データベースは、米国NOAAが公開する1842年以降の世界の熱帯低気圧のベストトラックデータアーカイブInternational Best Track Archive for Climate Stewardship (IBTrACS)を、ウェブで閲覧しやすい形式に変換したものです。

最終更新日:2022-07-01